createdAt,value
2022-08-05T00:00:16.268Z,21.90
2022-08-05T00:02:49.116Z,21.88
2022-08-05T00:06:01.720Z,21.88
2022-08-05T00:08:05.138Z,21.82
2022-08-05T00:10:37.285Z,21.72
2022-08-05T00:13:03.888Z,21.65
2022-08-05T00:15:55.741Z,21.58
2022-08-05T00:18:21.789Z,21.51
2022-08-05T00:20:49.961Z,21.49
2022-08-05T00:23:16.412Z,21.47
2022-08-05T00:25:45.978Z,21.34
2022-08-05T00:28:13.521Z,21.31
2022-08-05T00:30:41.146Z,21.19
2022-08-05T00:34:42.498Z,21.10
2022-08-05T00:36:16.009Z,20.90
2022-08-05T00:38:44.278Z,20.93
2022-08-05T00:41:11.692Z,20.99
2022-08-05T00:43:49.508Z,21.12
2022-08-05T00:46:16.396Z,21.02
2022-08-05T00:48:50.710Z,20.99
2022-08-05T00:51:50.235Z,20.94
2022-08-05T00:54:06.065Z,20.90
2022-08-05T00:56:32.694Z,20.90
2022-08-05T00:59:00.309Z,20.91
2022-08-05T01:01:42.556Z,20.89
2022-08-05T01:04:15.653Z,20.87
2022-08-05T01:06:46.718Z,20.87
2022-08-05T01:09:20.113Z,20.91
2022-08-05T01:11:50.849Z,20.83
2022-08-05T01:14:27.794Z,20.81
2022-08-05T01:17:15.501Z,20.81
2022-08-05T01:20:01.823Z,20.84
2022-08-05T01:22:38.508Z,20.74
2022-08-05T01:25:53.174Z,20.68
2022-08-05T01:28:25.198Z,20.65
2022-08-05T01:30:57.058Z,20.63
2022-08-05T01:33:35.614Z,20.62
2022-08-05T01:36:12.807Z,20.56
2022-08-05T01:38:45.978Z,20.48
2022-08-05T01:41:21.017Z,20.46
2022-08-05T01:43:50.888Z,20.40
2022-08-05T01:46:42.417Z,20.34
2022-08-05T01:49:22.609Z,20.30
2022-08-05T01:51:55.173Z,20.19
2022-08-05T01:54:24.630Z,20.12
2022-08-05T01:58:11.649Z,20.05
2022-08-05T01:59:47.218Z,19.96
2022-08-05T02:02:15.967Z,19.93
2022-08-05T02:04:46.093Z,19.85
2022-08-05T02:07:22.187Z,19.72
2022-08-05T02:09:50.972Z,19.65
2022-08-05T02:12:32.802Z,19.67
2022-08-05T02:15:19.577Z,19.66
2022-08-05T02:18:30.855Z,19.67
2022-08-05T02:21:15.559Z,19.58
2022-08-05T02:23:44.970Z,19.51
2022-08-05T02:26:17.210Z,19.42
2022-08-05T02:28:46.534Z,19.36
2022-08-05T02:31:21.087Z,19.36
2022-08-05T02:33:57.384Z,19.42
2022-08-05T02:36:27.583Z,19.46
2022-08-05T02:39:00.188Z,19.48
2022-08-05T02:41:42.806Z,19.51
2022-08-05T02:44:17.789Z,19.54
2022-08-05T02:46:58.765Z,19.55
2022-08-05T02:49:36.762Z,19.59
2022-08-05T02:52:07.973Z,19.59
2022-08-05T02:54:37.740Z,19.57
2022-08-05T02:58:11.668Z,19.63
2022-08-05T02:59:59.496Z,19.63
2022-08-05T03:02:33.917Z,19.61
2022-08-05T03:05:01.933Z,19.53
2022-08-05T03:08:00.331Z,19.34
2022-08-05T03:10:21.855Z,19.15
2022-08-05T03:12:52.755Z,19.12
2022-08-05T03:15:20.676Z,19.23
2022-08-05T03:17:47.308Z,19.26
2022-08-05T03:20:14.012Z,19.26
2022-08-05T03:22:46.746Z,19.25
2022-08-05T03:25:33.725Z,19.21
2022-08-05T03:28:08.259Z,19.19
2022-08-05T03:30:36.839Z,19.28
2022-08-05T03:33:07.370Z,19.30
2022-08-05T03:35:40.715Z,19.30
2022-08-05T03:38:10.725Z,19.30
2022-08-05T03:40:45.152Z,19.25
2022-08-05T03:43:58.454Z,19.25
2022-08-05T03:46:01.586Z,19.27
2022-08-05T03:48:29.080Z,19.28
2022-08-05T03:52:50.493Z,19.26
2022-08-05T03:55:52.674Z,19.26
2022-08-05T03:57:16.557Z,19.30
2022-08-05T03:59:54.691Z,19.27
2022-08-05T04:02:38.229Z,19.28
2022-08-05T04:05:12.944Z,19.19
2022-08-05T04:07:57.690Z,19.07
2022-08-05T04:10:30.805Z,19.03
2022-08-05T04:13:00.562Z,19.06
2022-08-05T04:15:32.862Z,19.15
2022-08-05T04:18:07.341Z,19.15
2022-08-05T04:20:36.811Z,19.17
2022-08-05T04:23:03.680Z,19.05
2022-08-05T04:25:57.496Z,18.96
2022-08-05T04:28:18.023Z,18.98
2022-08-05T04:30:45.457Z,19.09
2022-08-05T04:33:12.910Z,19.16
2022-08-05T04:36:10.808Z,19.19
2022-08-05T04:38:39.471Z,19.21
2022-08-05T04:41:09.394Z,19.26
2022-08-05T04:43:37.636Z,19.22
2022-08-05T04:46:07.222Z,19.08
2022-08-05T04:48:33.801Z,19.21
2022-08-05T04:51:02.887Z,19.35
2022-08-05T04:53:36.510Z,19.29
2022-08-05T04:56:33.408Z,19.37
2022-08-05T04:58:56.525Z,19.45
2022-08-05T05:01:59.665Z,19.59
2022-08-05T05:04:10.132Z,19.53
2022-08-05T05:06:44.476Z,19.46
2022-08-05T05:09:14.194Z,19.61
2022-08-05T05:11:54.622Z,19.64
2022-08-05T05:14:31.586Z,19.70
2022-08-05T05:17:00.137Z,19.83
2022-08-05T05:19:36.174Z,19.94
2022-08-05T05:22:23.076Z,19.97
2022-08-05T05:24:56.886Z,20.03
2022-08-05T05:27:45.912Z,20.09
2022-08-05T05:30:28.718Z,20.04
2022-08-05T05:32:57.358Z,20.05
2022-08-05T05:35:29.085Z,20.14
2022-08-05T05:38:01.978Z,20.21
2022-08-05T05:40:30.250Z,20.34
2022-08-05T05:42:59.705Z,20.41
2022-08-05T05:45:28.847Z,20.46
2022-08-05T05:48:06.061Z,20.51
2022-08-05T05:50:35.740Z,20.92
2022-08-05T05:53:22.372Z,21.42
2022-08-05T05:55:52.364Z,21.98
2022-08-05T05:58:31.976Z,22.68
2022-08-05T06:01:13.064Z,23.44
2022-08-05T06:04:00.488Z,23.89
2022-08-05T06:06:33.103Z,23.72
2022-08-05T06:09:01.302Z,24.00
2022-08-05T06:11:29.856Z,24.56
2022-08-05T06:13:56.656Z,24.97
2022-08-05T06:16:29.591Z,25.53
2022-08-05T06:19:00.916Z,25.80
2022-08-05T06:21:36.116Z,26.29
2022-08-05T06:24:04.604Z,26.90
2022-08-05T06:26:33.904Z,27.32
2022-08-05T06:29:06.036Z,27.37
2022-08-05T06:31:48.702Z,27.53
2022-08-05T06:34:20.384Z,27.77
2022-08-05T06:36:57.096Z,27.96
2022-08-05T06:39:27.015Z,28.20
2022-08-05T06:41:54.269Z,28.57
2022-08-05T06:44:21.993Z,28.97
2022-08-05T06:46:51.081Z,28.77
2022-08-05T06:49:18.823Z,28.91
2022-08-05T06:51:47.902Z,29.37
2022-08-05T06:54:18.258Z,29.04
2022-08-05T06:56:54.631Z,29.21
2022-08-05T06:59:38.504Z,29.12
2022-08-05T07:02:05.731Z,29.56
2022-08-05T07:04:32.343Z,29.86
2022-08-05T07:07:00.153Z,30.18
2022-08-05T07:09:26.764Z,30.50
2022-08-05T07:12:00.633Z,30.50
2022-08-05T07:14:46.230Z,30.67
2022-08-05T07:17:59.534Z,30.89
2022-08-05T07:22:47.834Z,30.36
2022-08-05T07:25:54.489Z,30.43
2022-08-05T07:28:07.280Z,30.35
2022-08-05T07:30:39.714Z,30.56
2022-08-05T07:33:16.216Z,30.52
2022-08-05T07:36:03.567Z,30.77
2022-08-05T07:38:34.439Z,30.66
2022-08-05T07:42:08.234Z,30.52
2022-08-05T07:43:52.460Z,30.32
2022-08-05T07:46:25.533Z,30.21
2022-08-05T07:49:01.973Z,30.28
2022-08-05T07:51:48.997Z,30.60
2022-08-05T07:54:30.773Z,30.87
2022-08-05T07:57:22.733Z,31.18
2022-08-05T07:59:48.914Z,31.05
2022-08-05T08:02:17.588Z,31.08
2022-08-05T08:04:47.302Z,30.93
2022-08-05T08:07:15.035Z,31.00
2022-08-05T08:09:41.970Z,30.99
2022-08-05T08:12:27.364Z,31.21
2022-08-05T08:14:55.525Z,31.02
2022-08-05T08:17:23.514Z,31.13
2022-08-05T08:20:21.966Z,31.22
2022-08-05T08:22:37.082Z,31.07
2022-08-05T08:25:16.201Z,30.78
2022-08-05T08:27:47.890Z,30.66
2022-08-05T08:30:29.382Z,30.82
2022-08-05T08:33:04.410Z,30.67
2022-08-05T08:35:35.258Z,30.73
2022-08-05T08:38:16.489Z,31.05
2022-08-05T08:40:47.785Z,31.19
2022-08-05T08:44:54.731Z,31.39
2022-08-05T08:46:06.751Z,31.44
2022-08-05T08:49:03.270Z,31.31
2022-08-05T08:52:03.171Z,31.24
2022-08-05T08:54:18.203Z,31.14
2022-08-05T08:56:47.381Z,31.41
2022-08-05T08:59:19.666Z,31.60
2022-08-05T09:01:57.430Z,31.62
2022-08-05T09:04:30.275Z,31.51
2022-08-05T09:06:58.519Z,31.38
2022-08-05T09:09:26.049Z,31.44
2022-08-05T09:12:13.360Z,31.50
2022-08-05T09:14:57.071Z,31.58
2022-08-05T09:17:42.358Z,31.57
2022-08-05T09:20:10.814Z,31.59
2022-08-05T09:23:05.498Z,31.87
2022-08-05T09:26:02.375Z,31.88
2022-08-05T09:28:32.134Z,31.92
2022-08-05T09:31:43.665Z,31.87
2022-08-05T09:33:58.575Z,31.90
2022-08-05T09:36:54.052Z,32.27
2022-08-05T09:39:24.696Z,32.24
2022-08-05T09:42:08.570Z,32.14
2022-08-05T09:44:41.773Z,32.14
2022-08-05T09:47:15.464Z,32.07
2022-08-05T09:50:01.728Z,32.21
2022-08-05T09:52:34.434Z,32.23
2022-08-05T09:55:06.366Z,32.29
2022-08-05T09:57:54.619Z,32.48
2022-08-05T10:00:26.443Z,32.49
2022-08-05T10:02:58.634Z,32.72
2022-08-05T10:05:32.698Z,32.74
2022-08-05T10:08:35.462Z,32.82
2022-08-05T10:10:55.105Z,32.76
2022-08-05T10:13:45.767Z,32.64
2022-08-05T10:16:41.787Z,32.62
2022-08-05T10:19:23.455Z,32.30
2022-08-05T10:21:58.597Z,32.27
2022-08-05T10:24:27.226Z,32.18
2022-08-05T10:26:56.321Z,32.16
2022-08-05T10:30:06.403Z,32.07
2022-08-05T10:32:52.808Z,32.12
2022-08-05T10:35:03.917Z,32.37
2022-08-05T10:37:41.368Z,32.45
2022-08-05T10:40:45.098Z,32.44
2022-08-05T10:43:37.154Z,32.52
2022-08-05T10:46:08.772Z,32.53
2022-08-05T10:48:52.750Z,32.73
2022-08-05T10:51:28.401Z,32.87
2022-08-05T10:53:58.378Z,33.04
2022-08-05T10:56:29.397Z,33.12
2022-08-05T10:59:06.934Z,33.35
2022-08-05T11:02:03.802Z,33.40
2022-08-05T11:04:31.802Z,33.53
2022-08-05T11:07:06.609Z,33.56
2022-08-05T11:09:46.711Z,33.76
2022-08-05T11:12:42.155Z,33.63
2022-08-05T11:15:19.751Z,33.66
2022-08-05T11:18:00.348Z,33.48
2022-08-05T11:20:53.606Z,33.61
2022-08-05T11:24:04.448Z,33.53
2022-08-05T11:26:29.013Z,33.51
2022-08-05T11:29:06.971Z,33.50
2022-08-05T11:31:57.072Z,33.89
2022-08-05T11:34:38.929Z,33.65
2022-08-05T11:38:14.280Z,33.50
2022-08-05T11:40:00.679Z,33.46
2022-08-05T11:42:38.108Z,33.72
2022-08-05T11:45:14.538Z,33.77
2022-08-05T11:47:54.898Z,33.66
2022-08-05T11:50:21.952Z,33.76
2022-08-05T11:52:50.273Z,33.78
2022-08-05T11:55:18.720Z,33.89
2022-08-05T11:58:08.496Z,33.66
2022-08-05T12:00:38.106Z,33.63
2022-08-05T12:03:29.630Z,33.49
2022-08-05T12:06:06.408Z,33.31
2022-08-05T12:08:49.803Z,33.36
2022-08-05T12:11:28.230Z,33.33
2022-08-05T12:14:10.924Z,33.30
2022-08-05T12:16:39.716Z,33.25
2022-08-05T12:19:08.338Z,33.48
2022-08-05T12:21:43.985Z,33.68
2022-08-05T12:24:21.619Z,33.41
2022-08-05T12:26:53.969Z,33.47
2022-08-05T12:29:23.529Z,33.64
2022-08-05T12:31:58.368Z,33.80
2022-08-05T12:34:37.149Z,33.82
2022-08-05T12:37:22.800Z,33.77
2022-08-05T12:40:03.728Z,34.02
2022-08-05T12:42:39.314Z,34.01
2022-08-05T12:45:09.573Z,33.85
2022-08-05T12:47:38.236Z,33.46
2022-08-05T12:50:17.359Z,33.18
2022-08-05T12:52:59.446Z,32.89
2022-08-05T12:55:32.690Z,32.57
2022-08-05T12:58:38.035Z,32.56
2022-08-05T13:02:04.267Z,32.60
2022-08-05T13:03:41.401Z,32.70
2022-08-05T13:06:11.667Z,32.75
2022-08-05T13:08:38.928Z,32.85
2022-08-05T13:11:07.898Z,32.71
2022-08-05T13:14:06.784Z,32.71
2022-08-05T13:16:28.650Z,32.90
2022-08-05T13:18:59.399Z,32.97
2022-08-05T13:21:28.230Z,33.07
2022-08-05T13:24:05.451Z,33.08
2022-08-05T13:26:32.138Z,33.13
2022-08-05T13:28:59.122Z,33.07
2022-08-05T13:32:03.846Z,32.85
2022-08-05T13:34:21.464Z,32.79
2022-08-05T13:36:52.689Z,32.98
2022-08-05T13:40:14.423Z,32.92
2022-08-05T13:42:06.086Z,32.86
2022-08-05T13:44:32.709Z,33.15
2022-08-05T13:47:08.716Z,33.27
2022-08-05T13:49:35.593Z,33.22
2022-08-05T13:52:12.879Z,33.19
2022-08-05T13:54:40.032Z,33.24
2022-08-05T13:57:07.195Z,33.43
2022-08-05T13:59:34.426Z,33.35
2022-08-05T14:02:05.839Z,33.54
2022-08-05T14:04:56.702Z,33.46
2022-08-05T14:08:00.276Z,33.17
2022-08-05T14:10:28.803Z,33.12
2022-08-05T14:12:58.491Z,33.08
2022-08-05T14:16:05.536Z,32.98
2022-08-05T14:18:17.411Z,32.77
2022-08-05T14:20:47.925Z,32.71
2022-08-05T14:23:23.399Z,32.63
2022-08-05T14:25:54.257Z,32.62
2022-08-05T14:28:26.371Z,32.68
2022-08-05T14:30:54.741Z,32.71
2022-08-05T14:33:22.879Z,32.79
2022-08-05T14:35:52.008Z,32.83
2022-08-05T14:38:32.215Z,32.95
2022-08-05T14:41:05.611Z,33.04
2022-08-05T14:44:02.134Z,33.06
2022-08-05T14:46:21.764Z,33.10
2022-08-05T14:48:49.153Z,33.12
2022-08-05T14:51:16.658Z,33.13
2022-08-05T14:53:44.922Z,32.99
2022-08-05T14:56:12.191Z,32.85
2022-08-05T14:58:47.827Z,32.93
2022-08-05T15:01:47.140Z,32.95
2022-08-05T15:04:11.426Z,32.95
2022-08-05T15:06:38.951Z,32.98
2022-08-05T15:09:07.129Z,32.93
2022-08-05T15:11:51.611Z,32.79
2022-08-05T15:14:33.217Z,32.77
2022-08-05T15:17:03.961Z,32.90
2022-08-05T15:19:31.742Z,32.85
2022-08-05T15:22:01.047Z,32.78
2022-08-05T15:24:28.981Z,32.65
2022-08-05T15:26:55.887Z,32.71
2022-08-05T15:29:23.555Z,32.66
2022-08-05T15:31:56.530Z,32.56
2022-08-05T15:34:33.177Z,32.64
2022-08-05T15:37:06.863Z,32.59
2022-08-05T15:41:01.608Z,32.61
2022-08-05T15:42:50.135Z,32.60
2022-08-05T15:45:15.062Z,32.50
2022-08-05T15:47:43.719Z,32.42
2022-08-05T15:50:15.319Z,32.47
2022-08-05T15:52:53.693Z,32.52
2022-08-05T15:55:24.720Z,32.53
2022-08-05T15:58:09.482Z,32.53
2022-08-05T16:00:50.566Z,32.56
2022-08-05T16:03:30.543Z,32.69
2022-08-05T16:05:59.543Z,32.82
2022-08-05T16:08:30.763Z,32.71
2022-08-05T16:10:58.079Z,32.55
2022-08-05T16:13:34.247Z,32.58
2022-08-05T16:16:05.427Z,32.61
2022-08-05T16:18:33.147Z,32.53
2022-08-05T16:21:04.216Z,32.39
2022-08-05T16:23:53.369Z,32.38
2022-08-05T16:26:18.353Z,32.20
2022-08-05T16:28:46.801Z,32.15
2022-08-05T16:31:13.449Z,32.10
2022-08-05T16:33:42.073Z,31.97
2022-08-05T16:36:09.497Z,31.87
2022-08-05T16:38:36.151Z,31.65
2022-08-05T16:42:11.966Z,31.56
2022-08-05T16:43:56.484Z,31.30
2022-08-05T16:46:24.253Z,31.13
2022-08-05T16:48:51.370Z,31.02
2022-08-05T16:51:18.030Z,31.01
2022-08-05T16:54:05.394Z,30.92
2022-08-05T16:56:33.691Z,30.80
2022-08-05T16:59:07.719Z,30.87
2022-08-05T17:01:54.454Z,30.88
2022-08-05T17:04:27.627Z,30.84
2022-08-05T17:06:56.961Z,30.80
2022-08-05T17:09:28.470Z,30.69
2022-08-05T17:11:59.869Z,30.65
2022-08-05T17:14:34.482Z,30.88
2022-08-05T17:17:06.801Z,30.64
2022-08-05T17:19:43.822Z,30.53
2022-08-05T17:22:24.819Z,30.39
2022-08-05T17:24:57.573Z,30.31
2022-08-05T17:27:27.285Z,30.20
2022-08-05T17:30:02.493Z,30.15
2022-08-05T17:32:29.872Z,30.07
2022-08-05T17:34:58.272Z,30.05
2022-08-05T17:37:41.669Z,29.98
2022-08-05T17:40:14.903Z,30.00
2022-08-05T17:42:50.509Z,29.84
2022-08-05T17:45:25.013Z,29.83
2022-08-05T17:47:56.463Z,29.78
2022-08-05T17:50:29.477Z,29.76
2022-08-05T17:52:59.195Z,29.73
2022-08-05T17:55:34.712Z,29.75
2022-08-05T17:58:06.879Z,29.74
2022-08-05T18:00:34.591Z,29.71
2022-08-05T18:03:02.290Z,29.63
2022-08-05T18:05:35.552Z,29.59
2022-08-05T18:08:03.106Z,29.55
2022-08-05T18:10:33.573Z,29.45
2022-08-05T18:13:01.987Z,29.43
2022-08-05T18:15:35.174Z,29.37
2022-08-05T18:18:10.858Z,29.29
2022-08-05T18:20:38.249Z,29.16
2022-08-05T18:23:09.191Z,29.10
2022-08-05T18:25:38.889Z,28.99
2022-08-05T18:28:06.393Z,28.98
2022-08-05T18:30:33.396Z,28.93
2022-08-05T18:33:01.265Z,28.84
2022-08-05T18:36:00.143Z,28.74
2022-08-05T18:38:19.288Z,28.76
2022-08-05T18:41:57.879Z,28.66
2022-08-05T18:43:42.717Z,28.50
2022-08-05T18:46:15.280Z,28.43
2022-08-05T18:48:42.118Z,28.31
2022-08-05T18:52:05.669Z,28.14
2022-08-05T18:54:14.589Z,27.94
2022-08-05T18:56:41.889Z,27.89
2022-08-05T18:59:44.038Z,27.81
2022-08-05T19:02:04.716Z,27.66
2022-08-05T19:05:01.097Z,27.52
2022-08-05T19:07:24.849Z,27.40
2022-08-05T19:09:58.847Z,27.30
2022-08-05T19:12:25.754Z,27.25
2022-08-05T19:15:00.772Z,27.18
2022-08-05T19:17:59.356Z,27.10
2022-08-05T19:20:16.071Z,26.85
2022-08-05T19:22:44.366Z,26.79
2022-08-05T19:25:11.165Z,26.77
2022-08-05T19:27:49.852Z,26.58
2022-08-05T19:30:20.524Z,26.44
2022-08-05T19:32:47.661Z,26.31
2022-08-05T19:35:15.528Z,26.23
2022-08-05T19:38:04.765Z,26.10
2022-08-05T19:40:28.939Z,26.03
2022-08-05T19:43:05.053Z,26.09
2022-08-05T19:45:33.308Z,26.01
2022-08-05T19:48:04.277Z,26.27
2022-08-05T19:50:32.308Z,25.93
2022-08-05T19:53:09.734Z,25.95
2022-08-05T19:56:15.094Z,25.93
2022-08-05T19:58:28.669Z,25.91
2022-08-05T20:00:56.401Z,25.78
2022-08-05T20:03:25.375Z,25.73
2022-08-05T20:05:56.661Z,25.80
2022-08-05T20:08:24.591Z,25.76
2022-08-05T20:10:51.757Z,25.76
2022-08-05T20:13:30.162Z,25.73
2022-08-05T20:16:05.906Z,25.70
2022-08-05T20:18:35.909Z,25.67
2022-08-05T20:21:04.597Z,25.63
2022-08-05T20:23:40.362Z,25.54
2022-08-05T20:26:23.282Z,25.52
2022-08-05T20:28:54.010Z,25.39
2022-08-05T20:31:37.291Z,25.34
2022-08-05T20:34:12.496Z,25.33
2022-08-05T20:36:43.369Z,25.33
2022-08-05T20:39:13.324Z,25.32
2022-08-05T20:41:44.594Z,25.24
2022-08-05T20:44:19.403Z,25.13
2022-08-05T20:47:03.551Z,25.12
2022-08-05T20:49:30.313Z,25.08
2022-08-05T20:52:04.980Z,25.04
2022-08-05T20:54:42.982Z,24.94
2022-08-05T20:57:24.828Z,24.63
2022-08-05T21:00:41.068Z,24.48
2022-08-05T21:03:01.363Z,24.27
2022-08-05T21:05:38.089Z,24.21
2022-08-05T21:08:14.941Z,24.24
2022-08-05T21:10:48.608Z,24.22
2022-08-05T21:13:26.339Z,24.30
2022-08-05T21:16:02.495Z,24.22
2022-08-05T21:18:30.345Z,24.18
2022-08-05T21:20:57.566Z,24.18
2022-08-05T21:23:24.766Z,24.15
2022-08-05T21:25:51.752Z,24.17
2022-08-05T21:28:23.856Z,24.08
2022-08-05T21:30:50.821Z,23.91
2022-08-05T21:33:22.261Z,23.94
2022-08-05T21:35:58.479Z,23.91
2022-08-05T21:38:26.665Z,23.91
2022-08-05T21:40:53.367Z,23.86
2022-08-05T21:43:24.567Z,23.72
2022-08-05T21:45:57.963Z,23.73
2022-08-05T21:48:27.974Z,23.74
2022-08-05T21:50:55.219Z,23.93
2022-08-05T21:53:27.258Z,23.83
2022-08-05T21:56:05.752Z,23.64
2022-08-05T21:58:42.056Z,23.53
2022-08-05T22:01:10.622Z,23.53
2022-08-05T22:03:52.560Z,23.66
2022-08-05T22:06:22.854Z,23.57
2022-08-05T22:09:01.805Z,23.56
2022-08-05T22:11:40.710Z,23.53
2022-08-05T22:14:34.387Z,23.54
2022-08-05T22:16:56.980Z,23.57
2022-08-05T22:20:01.193Z,23.54
2022-08-05T22:22:11.920Z,23.62
2022-08-05T22:24:57.131Z,23.60
2022-08-05T22:28:08.439Z,23.66
2022-08-05T22:30:34.896Z,23.70
2022-08-05T22:33:02.143Z,23.69
2022-08-05T22:35:31.007Z,23.70
2022-08-05T22:38:06.239Z,23.62
2022-08-05T22:40:36.771Z,23.75
2022-08-05T22:43:04.894Z,23.80
2022-08-05T22:45:31.520Z,23.82
2022-08-05T22:47:59.366Z,23.81
2022-08-05T22:50:26.828Z,23.78
2022-08-05T22:52:54.903Z,23.82
2022-08-05T22:55:23.312Z,23.78
2022-08-05T22:57:53.592Z,23.70
2022-08-05T23:00:23.300Z,23.75
2022-08-05T23:02:52.114Z,23.77
2022-08-05T23:05:22.036Z,23.76
2022-08-05T23:07:50.260Z,23.67
2022-08-05T23:10:20.051Z,23.67
2022-08-05T23:12:54.466Z,23.71
2022-08-05T23:15:21.943Z,23.60
2022-08-05T23:18:00.710Z,23.60
2022-08-05T23:20:37.321Z,23.62
2022-08-05T23:23:06.106Z,23.47
2022-08-05T23:25:52.909Z,23.52
2022-08-05T23:28:22.082Z,23.57
2022-08-05T23:30:53.030Z,23.62
2022-08-05T23:33:26.528Z,23.49
2022-08-05T23:36:09.962Z,23.22
2022-08-05T23:38:37.199Z,23.17
2022-08-05T23:41:03.807Z,23.00
2022-08-05T23:44:05.317Z,22.94
2022-08-05T23:46:20.689Z,22.90
2022-08-05T23:48:59.710Z,22.89
2022-08-05T23:51:53.576Z,22.88
2022-08-05T23:54:29.951Z,22.82
2022-08-05T23:57:03.904Z,22.85
